Wetterdaten: Woche 24.09.01 - 30.09.01 (KW39)
Datum Zeit Temperatur Luftfeuchte Luftdruck Regenmenge Wind Richtung Taupunkt Windchill
24.09.2001 00:00 10.2 C 94 % 996.4 hPa 0.0 l/m 0.0 km/h (0 Bft) N 9.3 C 10.2 C
24.09.2001 01:00 10.4 C 93 % 996.4 hPa 0.3 l/m 0.0 km/h (0 Bft) N 9.3 C 10.4 C
24.09.2001 02:00 10.4 C 93 % 996.4 hPa 0.3 l/m 0.0 km/h (0 Bft) N 9.4 C 10.4 C
24.09.2001 03:00 10.4 C 93 % 996.9 hPa 1.3 l/m 0.0 km/h (0 Bft) N 9.3 C 10.4 C
24.09.2001 04:00 10.4 C 93 % 997.4 hPa 0.9 l/m 0.0 km/h (0 Bft) N 9.3 C 10.4 C
24.09.2001 05:00 10.5 C 94 % 997.4 hPa 0.6 l/m 0.0 km/h (0 Bft) N 9.5 C 10.5 C
24.09.2001 06:00 10.5 C 94 % 997.8 hPa 0.3 l/m 0.0 km/h (0 Bft) N 9.5 C 10.5 C
24.09.2001 07:00 10.5 C 94 % 998.5 hPa 0.0 l/m 0.1 km/h (0 Bft) N-NO 9.5 C 10.5 C
24.09.2001 08:00 10.6 C 94 % 999.2 hPa 0.0 l/m 1.5 km/h (1 Bft) W 9.7 C 10.6 C
24.09.2001 09:00 10.9 C 92 % 999.9 hPa 0.0 l/m 0.3 km/h (0 Bft) W 9.7 C 10.9 C
24.09.2001 10:00 11.2 C 92 % 1000.5 hPa 0.0 l/m 0.3 km/h (0 Bft) SW 9.9 C 11.2 C
24.09.2001 11:00 12.1 C 88 % 1001.5 hPa 0.0 l/m 2.9 km/h (1 Bft) W 10.1 C 12.1 C
24.09.2001 12:00 13.5 C 82 % 1001.6 hPa 0.0 l/m 2.0 km/h (1 Bft) W 10.4 C 13.5 C
24.09.2001 13:00 14.4 C 75 % 1001.6 hPa 0.0 l/m 11.6 km/h (2 Bft) W-NW 10.0 C 14.4 C
24.09.2001 14:00 15.6 C 69 % 1002.5 hPa 0.0 l/m 11.8 km/h (2 Bft) W-NW 9.9 C 15.6 C
24.09.2001 15:00 16.2 C 65 % 1002.6 hPa 0.0 l/m 14.3 km/h (3 Bft) W-NW 9.6 C 16.2 C
24.09.2001 16:00 16.6 C 62 % 1002.6 hPa 0.0 l/m 16.4 km/h (3 Bft) W-NW 9.4 C 16.6 C
24.09.2001 17:00 15.1 C 67 % 1003.1 hPa 0.0 l/m 7.1 km/h (2 Bft) W-NW 8.9 C 15.1 C
24.09.2001 18:00 15.2 C 70 % 1003.6 hPa 0.0 l/m 0.4 km/h (0 Bft) O 9.6 C 15.2 C
24.09.2001 19:00 13.2 C 79 % 1003.9 hPa 0.0 l/m 0.1 km/h (0 Bft) N 9.5 C 13.2 C
24.09.2001 20:00 11.5 C 86 % 1004.7 hPa 0.0 l/m 3.3 km/h (1 Bft) O 9.2 C 11.5 C
24.09.2001 21:00 10.3 C 89 % 1005.4 hPa 0.0 l/m 2.5 km/h (1 Bft) O 8.6 C 10.3 C
24.09.2001 22:00 9.2 C 91 % 1005.7 hPa 0.0 l/m 1.0 km/h (0 Bft) O 7.8 C 9.2 C
24.09.2001 23:00 8.7 C 92 % 1005.7 hPa 0.0 l/m 0.0 km/h (0 Bft) N 7.4 C 8.7 C
25.09.2001 00:00 9.4 C 93 % 1006.0 hPa 0.0 l/m 0.0 km/h (0 Bft) N 8.3 C 9.4 C
25.09.2001 01:00 9.4 C 92 % 1006.4 hPa 0.0 l/m 0.0 km/h (0 Bft) N 8.2 C 9.4 C
25.09.2001 02:00 9.1 C 94 % 1006.7 hPa 0.0 l/m 0.1 km/h (0 Bft) O-NO 8.2 C 9.1 C
25.09.2001 03:00 8.6 C 95 % 1006.7 hPa 0.0 l/m 0.1 km/h (0 Bft) N 7.8 C 8.6 C
25.09.2001 04:00 8.2 C 95 % 1006.7 hPa 0.0 l/m 0.1 km/h (0 Bft) N 7.4 C 8.2 C
25.09.2001 05:00 8.0 C 95 % 1006.7 hPa 0.0 l/m 0.8 km/h (0 Bft) W 7.2 C 8.0 C
25.09.2001 06:00 7.6 C 95 % 1006.7 hPa 0.0 l/m 0.6 km/h (0 Bft) W-NW 6.8 C 7.6 C
25.09.2001 07:00 7.6 C 94 % 1007.6 hPa 0.0 l/m 0.1 km/h (0 Bft) N 6.7 C 7.6 C
25.09.2001 08:00 7.7 C 94 % 1007.8 hPa 0.0 l/m 0.3 km/h (0 Bft) W-NW 6.9 C 7.7 C
25.09.2001 09:00 8.4 C 91 % 1008.4 hPa 0.0 l/m 0.0 km/h (0 Bft) N 7.1 C 8.4 C
25.09.2001 10:00 9.4 C 87 % 1008.8 hPa 0.0 l/m 0.4 km/h (0 Bft) O-SO 7.3 C 9.4 C
25.09.2001 11:00 10.1 C 85 % 1008.8 hPa 0.0 l/m 0.0 km/h (0 Bft) N 7.7 C 10.1 C
25.09.2001 12:00 10.8 C 85 % 1008.8 hPa 0.0 l/m 0.0 km/h (0 Bft) N 8.4 C 10.8 C
25.09.2001 13:00 11.8 C 83 % 1008.8 hPa 0.0 l/m 1.7 km/h (1 Bft) O-SO 9.0 C 11.8 C
25.09.2001 14:00 13.6 C 76 % 1008.8 hPa 0.0 l/m 3.3 km/h (1 Bft) O 9.4 C 13.6 C
25.09.2001 15:00 15.0 C 69 % 1008.8 hPa 0.0 l/m 4.7 km/h (1 Bft) O-SO 9.5 C 15.0 C
25.09.2001 16:00 14.3 C 73 % 1008.8 hPa 0.0 l/m 6.6 km/h (2 Bft) O-SO 9.6 C 14.3 C
25.09.2001 17:00 13.4 C 79 % 1008.8 hPa 0.0 l/m 4.8 km/h (1 Bft) O-SO 9.8 C 13.4 C
25.09.2001 18:00 12.9 C 81 % 1008.8 hPa 0.0 l/m 4.0 km/h (1 Bft) O-SO 9.7 C 12.9 C
25.09.2001 19:00 12.1 C 85 % 1009.2 hPa 2.5 l/m 3.8 km/h (1 Bft) O-SO 9.7 C 12.1 C
25.09.2001 20:00 10.6 C 90 % 1010.2 hPa 4.1 l/m 2.0 km/h (1 Bft) O-SO 9.0 C 10.6 C
25.09.2001 21:00 10.3 C 92 % 1010.9 hPa 0.0 l/m 0.6 km/h (0 Bft) O-SO 9.0 C 10.3 C
25.09.2001 22:00 9.8 C 91 % 1010.9 hPa 0.0 l/m 0.2 km/h (0 Bft) O-SO 8.5 C 9.8 C
25.09.2001 23:00 10.0 C 93 % 1010.9 hPa 0.0 l/m 3.2 km/h (1 Bft) W-NW 8.9 C 9.7 C
26.09.2001 00:00 9.5 C 92 % 1011.8 hPa 0.0 l/m 4.1 km/h (1 Bft) W-NW 8.2 C 9.0 C
26.09.2001 01:00 8.4 C 92 % 1011.9 hPa 0.0 l/m 0.0 km/h (0 Bft) N 7.1 C 8.4 C
26.09.2001 02:00 7.2 C 93 % 1011.9 hPa 0.0 l/m 0.1 km/h (0 Bft) NW 6.0 C 7.2 C
26.09.2001 03:00 7.0 C 94 % 1011.9 hPa 0.0 l/m 3.9 km/h (1 Bft) O 6.1 C 6.6 C
26.09.2001 04:00 6.9 C 94 % 1011.9 hPa 0.0 l/m 2.6 km/h (1 Bft) O 6.0 C 6.7 C
26.09.2001 05:00 7.2 C 94 % 1011.9 hPa 0.0 l/m 0.1 km/h (0 Bft) N 6.3 C 7.2 C
26.09.2001 06:00 7.9 C 94 % 1012.6 hPa 0.0 l/m 0.0 km/h (0 Bft) N 7.0 C 7.9 C
26.09.2001 07:00 8.5 C 94 % 1013.0 hPa 0.0 l/m 0.0 km/h (0 Bft) N 7.6 C 8.5 C
26.09.2001 08:00 8.9 C 94 % 1013.0 hPa 0.0 l/m 2.0 km/h (1 Bft) O-SO 8.0 C 8.7 C
26.09.2001 09:00 9.3 C 92 % 1013.5 hPa 0.0 l/m 2.9 km/h (1 Bft) O-SO 8.0 C 9.0 C
26.09.2001 10:00 9.9 C 89 % 1014.0 hPa 0.0 l/m 0.8 km/h (0 Bft) O 8.2 C 9.9 C
26.09.2001 11:00 11.0 C 85 % 1014.0 hPa 0.0 l/m 0.6 km/h (0 Bft) O-SO 8.6 C 11.0 C
26.09.2001 12:00 12.8 C 78 % 1013.4 hPa 0.0 l/m 0.4 km/h (0 Bft) O-NO 9.0 C 12.8 C
26.09.2001 13:00 15.1 C 68 % 1013.0 hPa 0.0 l/m 3.7 km/h (1 Bft) O-SO 9.2 C 15.1 C
26.09.2001 14:00 16.7 C 59 % 1013.0 hPa 0.0 l/m 3.9 km/h (1 Bft) W 8.7 C 16.7 C
26.09.2001 15:00 17.3 C 55 % 1012.2 hPa 0.0 l/m 3.7 km/h (1 Bft) W 8.1 C 17.3 C
26.09.2001 16:00 17.5 C 53 % 1011.9 hPa 0.0 l/m 5.2 km/h (1 Bft) O-SO 7.9 C 17.5 C
26.09.2001 17:00 16.9 C 54 % 1011.9 hPa 0.0 l/m 1.1 km/h (1 Bft) W-SW 7.7 C 16.9 C
26.09.2001 18:00 14.9 C 66 % 1011.9 hPa 0.0 l/m 0.0 km/h (0 Bft) N 8.6 C 14.9 C
26.09.2001 19:00 12.2 C 80 % 1011.9 hPa 0.0 l/m 4.6 km/h (1 Bft) O-SO 8.9 C 12.2 C
26.09.2001 20:00 10.2 C 86 % 1011.9 hPa 0.0 l/m 4.0 km/h (1 Bft) O-SO 7.9 C 10.2 C
26.09.2001 21:00 9.0 C 88 % 1012.9 hPa 0.0 l/m 2.4 km/h (1 Bft) O 7.2 C 8.8 C
26.09.2001 22:00 8.3 C 90 % 1013.0 hPa 0.0 l/m 2.6 km/h (1 Bft) O 6.8 C 8.1 C
26.09.2001 23:00 7.6 C 91 % 1013.0 hPa 0.0 l/m 0.3 km/h (0 Bft) O 6.3 C 7.6 C
27.09.2001 00:00 7.2 C 92 % 1013.0 hPa 0.0 l/m 0.4 km/h (0 Bft) O 6.0 C 7.2 C
27.09.2001 01:00 7.0 C 93 % 1013.0 hPa 0.0 l/m 3.8 km/h (1 Bft) O 5.9 C 6.5 C
27.09.2001 02:00 7.5 C 93 % 1013.0 hPa 0.0 l/m 0.6 km/h (0 Bft) O 6.4 C 7.5 C
27.09.2001 03:00 8.0 C 94 % 1012.9 hPa 0.0 l/m 2.5 km/h (1 Bft) O-SO 7.1 C 7.9 C
27.09.2001 04:00 8.2 C 94 % 1012.2 hPa 0.0 l/m 3.1 km/h (1 Bft) O-SO 7.3 C 8.1 C
27.09.2001 05:00 8.3 C 93 % 1011.9 hPa 0.0 l/m 1.5 km/h (1 Bft) O-SO 7.3 C 8.2 C
27.09.2001 06:00 8.0 C 94 % 1011.9 hPa 0.3 l/m 3.4 km/h (1 Bft) O 7.1 C 7.7 C
27.09.2001 07:00 7.6 C 94 % 1011.9 hPa 0.0 l/m 5.2 km/h (1 Bft) O-SO 6.7 C 7.0 C
27.09.2001 08:00 7.9 C 94 % 1011.9 hPa 0.0 l/m 4.2 km/h (1 Bft) O-SO 7.1 C 7.7 C
27.09.2001 09:00 8.5 C 93 % 1012.5 hPa 0.0 l/m 4.3 km/h (1 Bft) O-SO 7.4 C 8.1 C
27.09.2001 10:00 10.2 C 87 % 1012.9 hPa 0.0 l/m 3.6 km/h (1 Bft) O-SO 8.1 C 10.1 C
27.09.2001 11:00 12.5 C 77 % 1011.9 hPa 0.0 l/m 3.7 km/h (1 Bft) O-SO 8.6 C 12.5 C
27.09.2001 12:00 14.6 C 69 % 1011.9 hPa 0.0 l/m 6.8 km/h (2 Bft) O-SO 9.0 C 14.6 C
27.09.2001 13:00 16.8 C 62 % 1010.9 hPa 0.0 l/m 8.6 km/h (2 Bft) O-SO 9.4 C 16.8 C
27.09.2001 14:00 17.9 C 58 % 1010.6 hPa 0.0 l/m 9.6 km/h (2 Bft) O-SO 9.4 C 17.9 C
27.09.2001 15:00 18.2 C 57 % 1009.9 hPa 0.0 l/m 0.9 km/h (0 Bft) O-NO 9.4 C 18.2 C
27.09.2001 16:00 18.2 C 56 % 1009.3 hPa 0.0 l/m 0.5 km/h (0 Bft) O 9.4 C 18.2 C
27.09.2001 17:00 17.2 C 61 % 1008.8 hPa 0.0 l/m 0.6 km/h (0 Bft) O 9.5 C 17.2 C
27.09.2001 18:00 16.3 C 68 % 1008.8 hPa 0.0 l/m 2.3 km/h (1 Bft) O 10.4 C 16.3 C
27.09.2001 19:00 13.6 C 80 % 1008.8 hPa 0.0 l/m 2.6 km/h (1 Bft) O 10.3 C 13.6 C
27.09.2001 20:00 11.5 C 87 % 1009.5 hPa 0.0 l/m 2.0 km/h (1 Bft) O-SO 9.3 C 11.5 C
27.09.2001 21:00 10.1 C 89 % 1009.9 hPa 0.0 l/m 1.1 km/h (1 Bft) O-SO 8.3 C 10.1 C
27.09.2001 22:00 9.2 C 90 % 1009.9 hPa 0.0 l/m 0.2 km/h (0 Bft) N 7.6 C 9.2 C
27.09.2001 23:00 8.4 C 91 % 1009.9 hPa 0.0 l/m 0.8 km/h (0 Bft) O-SO 7.0 C 8.4 C
28.09.2001 00:00 8.1 C 92 % 1009.9 hPa 0.0 l/m 0.0 km/h (0 Bft) N 6.9 C 8.1 C
28.09.2001 01:00 8.6 C 92 % 1009.9 hPa 0.0 l/m 0.0 km/h (0 Bft) O 7.4 C 8.6 C
28.09.2001 02:00 9.1 C 93 % 1009.9 hPa 0.0 l/m 1.3 km/h (1 Bft) O 8.0 C 9.1 C
28.09.2001 03:00 9.4 C 92 % 1009.9 hPa 0.0 l/m 2.2 km/h (1 Bft) O 8.2 C 9.4 C
28.09.2001 04:00 9.3 C 93 % 1009.9 hPa 0.0 l/m 1.3 km/h (1 Bft) O 8.1 C 9.2 C
28.09.2001 05:00 8.9 C 94 % 1009.9 hPa 0.0 l/m 0.0 km/h (0 Bft) O-NO 7.9 C 8.9 C
28.09.2001 06:00 9.2 C 93 % 1009.9 hPa 0.0 l/m 1.4 km/h (1 Bft) O-SO 8.1 C 9.2 C
28.09.2001 07:00 9.0 C 93 % 1009.9 hPa 0.0 l/m 0.0 km/h (0 Bft) N 7.9 C 9.0 C
28.09.2001 08:00 9.0 C 93 % 1010.8 hPa 0.0 l/m 0.0 km/h (0 Bft) N 8.0 C 9.0 C
28.09.2001 09:00 9.6 C 91 % 1010.9 hPa 0.0 l/m 0.1 km/h (0 Bft) N 8.2 C 9.6 C
28.09.2001 10:00 10.6 C 87 % 1010.9 hPa 0.0 l/m 2.6 km/h (1 Bft) O-SO 8.5 C 10.6 C
28.09.2001 11:00 11.7 C 82 % 1010.6 hPa 0.0 l/m 3.4 km/h (1 Bft) O-SO 8.8 C 11.7 C
28.09.2001 12:00 13.7 C 76 % 1009.9 hPa 0.0 l/m 1.4 km/h (1 Bft) O 9.6 C 13.7 C
28.09.2001 13:00 15.9 C 69 % 1009.1 hPa 0.0 l/m 4.4 km/h (1 Bft) W-NW 10.2 C 15.9 C
28.09.2001 14:00 17.9 C 63 % 1008.1 hPa 0.0 l/m 3.0 km/h (1 Bft) W 10.6 C 17.9 C
28.09.2001 15:00 19.3 C 55 % 1007.8 hPa 0.0 l/m 2.0 km/h (1 Bft) W 9.9 C 19.3 C
28.09.2001 16:00 20.3 C 51 % 1006.7 hPa 0.0 l/m 2.7 km/h (1 Bft) O-SO 9.7 C 20.3 C
28.09.2001 17:00 19.8 C 52 % 1006.6 hPa 0.0 l/m 3.0 km/h (1 Bft) O-SO 9.8 C 19.8 C
28.09.2001 18:00 17.6 C 65 % 1005.9 hPa 0.0 l/m 8.6 km/h (2 Bft) O-SO 11.0 C 17.6 C
28.09.2001 19:00 14.7 C 75 % 1006.1 hPa 0.0 l/m 2.5 km/h (1 Bft) O-SO 10.2 C 14.7 C
28.09.2001 20:00 12.3 C 84 % 1006.7 hPa 0.0 l/m 0.7 km/h (0 Bft) O 9.8 C 12.3 C
28.09.2001 21:00 10.9 C 88 % 1006.7 hPa 0.0 l/m 2.1 km/h (1 Bft) O 9.1 C 10.9 C
28.09.2001 22:00 9.9 C 90 % 1006.7 hPa 0.0 l/m 0.6 km/h (0 Bft) O 8.3 C 9.9 C
28.09.2001 23:00 9.2 C 90 % 1006.7 hPa 0.0 l/m 0.0 km/h (0 Bft) N 7.7 C 9.2 C
29.09.2001 00:00 9.0 C 91 % 1006.7 hPa 0.0 l/m 1.9 km/h (1 Bft) O 7.6 C 8.8 C
29.09.2001 01:00 8.7 C 92 % 1006.5 hPa 0.0 l/m 0.0 km/h (0 Bft) N 7.4 C 8.7 C
29.09.2001 02:00 9.0 C 92 % 1006.7 hPa 0.0 l/m 1.6 km/h (1 Bft) O 7.8 C 8.9 C
29.09.2001 03:00 9.2 C 93 % 1006.7 hPa 0.0 l/m 0.8 km/h (0 Bft) O 8.1 C 9.2 C
29.09.2001 04:00 9.0 C 93 % 1006.6 hPa 0.0 l/m 0.4 km/h (0 Bft) O-SO 8.0 C 9.0 C
29.09.2001 05:00 9.3 C 92 % 1006.0 hPa 0.0 l/m 0.4 km/h (0 Bft) O-SO 8.2 C 9.3 C
29.09.2001 06:00 9.4 C 92 % 1005.8 hPa 0.0 l/m 4.3 km/h (1 Bft) O-SO 8.2 C 9.0 C
29.09.2001 07:00 9.2 C 93 % 1005.7 hPa 0.0 l/m 0.6 km/h (0 Bft) O-SO 8.1 C 9.1 C
29.09.2001 08:00 9.7 C 93 % 1006.5 hPa 0.0 l/m 0.5 km/h (0 Bft) O 8.5 C 9.7 C
29.09.2001 09:00 10.6 C 91 % 1006.7 hPa 0.0 l/m 0.0 km/h (0 Bft) N 9.2 C 10.6 C
29.09.2001 10:00 12.0 C 88 % 1006.7 hPa 0.0 l/m 0.1 km/h (0 Bft) N 10.0 C 12.0 C
29.09.2001 11:00 13.0 C 85 % 1006.7 hPa 0.0 l/m 1.2 km/h (1 Bft) O-SO 10.5 C 13.0 C
29.09.2001 12:00 13.9 C 83 % 1006.5 hPa 0.0 l/m 2.0 km/h (1 Bft) O 11.0 C 13.9 C
29.09.2001 13:00 15.3 C 78 % 1006.5 hPa 0.0 l/m 1.3 km/h (1 Bft) O-SO 11.4 C 15.3 C
29.09.2001 18:00 15.3 C 81 % 1005.7 hPa 0.0 l/m 1.3 km/h (1 Bft) O-SO 12.0 C 15.3 C
29.09.2001 22:00 13.5 C 90 % 1006.7 hPa 0.3 l/m 0.0 km/h (0 Bft) N 11.9 C 13.5 C
29.09.2001 23:00 13.5 C 90 % 1006.7 hPa 0.3 l/m 0.0 km/h (0 Bft) N 11.8 C 13.5 C
30.09.2001 00:00 13.3 C 89 % 1006.7 hPa 0.6 l/m 0.3 km/h (0 Bft) O-SO 11.6 C 13.3 C
30.09.2001 01:00 13.2 C 91 % 1006.7 hPa 0.3 l/m 4.5 km/h (1 Bft) O-SO 11.7 C 13.2 C
30.09.2001 02:00 13.1 C 91 % 1006.7 hPa 0.3 l/m 1.3 km/h (1 Bft) O-SO 11.7 C 13.1 C
30.09.2001 03:00 13.0 C 91 % 1006.7 hPa 0.0 l/m 0.5 km/h (0 Bft) O-SO 11.7 C 13.0 C
30.09.2001 04:00 13.0 C 91 % 1006.7 hPa 0.3 l/m 0.2 km/h (0 Bft) O-SO 11.6 C 13.0 C
30.09.2001 05:00 12.9 C 91 % 1006.7 hPa 0.0 l/m 1.2 km/h (1 Bft) O-SO 11.5 C 12.9 C
30.09.2001 06:00 12.9 C 92 % 1006.8 hPa 0.0 l/m 0.9 km/h (0 Bft) O-SO 11.6 C 12.9 C
30.09.2001 07:00 13.0 C 93 % 1007.7 hPa 0.0 l/m 0.5 km/h (0 Bft) O 11.9 C 13.0 C
30.09.2001 08:00 13.1 C 93 % 1007.8 hPa 0.0 l/m 0.0 km/h (0 Bft) N 12.0 C 13.1 C
30.09.2001 09:00 13.4 C 93 % 1008.8 hPa 0.3 l/m 0.8 km/h (0 Bft) O-SO 12.3 C 13.4 C
30.09.2001 10:00 13.8 C 92 % 1008.8 hPa 0.0 l/m 0.2 km/h (0 Bft) W 12.6 C 13.8 C
30.09.2001 11:00 14.6 C 90 % 1008.8 hPa 0.0 l/m 0.1 km/h (0 Bft) N 12.9 C 14.6 C
30.09.2001 12:00 15.6 C 85 % 1008.8 hPa 0.0 l/m 1.0 km/h (0 Bft) O-NO 13.0 C 15.6 C
30.09.2001 13:00 15.5 C 84 % 1008.4 hPa 0.0 l/m 0.2 km/h (0 Bft) SO 12.8 C 15.5 C
30.09.2001 14:00 17.2 C 75 % 1007.8 hPa 0.0 l/m 1.0 km/h (0 Bft) NO 12.8 C 17.2 C
30.09.2001 15:00 18.0 C 68 % 1007.8 hPa 0.0 l/m 1.4 km/h (1 Bft) W 12.0 C 18.0 C
30.09.2001 16:00 18.9 C 62 % 1007.7 hPa 0.0 l/m 0.5 km/h (0 Bft) W 11.5 C 18.9 C
30.09.2001 17:00 18.4 C 63 % 1007.4 hPa 0.0 l/m 2.2 km/h (1 Bft) W 11.3 C 18.4 C
30.09.2001 18:00 16.6 C 75 % 1007.6 hPa 0.0 l/m 0.0 km/h (0 Bft) O-SO 12.1 C 16.6 C
30.09.2001 19:00 14.1 C 85 % 1007.8 hPa 0.0 l/m 5.9 km/h (2 Bft) O-SO 11.6 C 14.1 C
30.09.2001 20:00 12.8 C 87 % 1007.8 hPa 0.0 l/m 1.5 km/h (1 Bft) O-SO 10.7 C 12.8 C
30.09.2001 21:00 11.9 C 89 % 1007.8 hPa 0.0 l/m 2.2 km/h (1 Bft) O 10.2 C 11.9 C
30.09.2001 22:00 10.8 C 90 % 1007.8 hPa 0.0 l/m 0.0 km/h (0 Bft) N 9.3 C 10.8 C
30.09.2001 23:00 10.3 C 91 % 1007.8 hPa 0.0 l/m 0.6 km/h (0 Bft) O 8.9 C 10.3 C
Min-Datum _ 26.09.01 28.09.01 24.09.01 - 24.09.01 - 27.09.01 27.09.01
_ Min-Zeit 04:08 16:52 00:00 - 00:00 - 01:51 01:51
Minimum _ 6.6 C 46 % 996.4 hPa - 0.0 km/h (0 Bft) - 5.6 C 5.3 C
Max-Datum _ 28.09.01 25.09.01 26.09.01 25.09.01 29.09.01 - 30.09.01 28.09.01
_ Max-Zeit 16:58 02:46 09:32 19:00 06:53 - 14:03 16:58
Maximum _ 20.7 C 95 % 1014.0 hPa 4.1 l/m 39.4 km/h
O-SO (6 Bft)
- 14.2 C 20.7 C
Durchschnitt _ 11.8 C 84 % 1008.0 hPa #13.1 l/m 2.0 km/h (1 Bft) O-SO 9.0 C 11.7 C

Durchschnitt Minimum Temp.11.1 C
Durchschnitt Maximum Temp.12.4 C
© Kaiko 2001